Delmar, Alabama
Current Conditions -  °F | °C
As of 9:56 PM on Tuesday 21 Oct 2014 (Local Time) from K1M4 Reporting Station
Clear Clear  
Wind Chill: 50°   Ceiling: Unl
Heat Index: 50°   Visibility: 10mi
Dew Point: 48°   Wind: 0mph
Humidity: 92%   Direction: NA
Pressure: 30.1"   Gusts: NA
Location:  34.17°N, 87.61°W
Report Text: K1M4 220256Z AUTO 00000KT 10SM CLR 10/09 A3010 RMK AO2 51013 T01000088 SLP204
Loading
Personal Weather Stations






























Interactive Weather Map
Tropical Storm Tracking
New forecast layout! Learn more

10-Day Weather Forecast

Advertisements
Track Severe Weather on mobile